sensor_id;sensor_type;location;lat;lon;timestamp;temperature;humidity
70550;DHT22;58101;48.658;2.328;2023-04-04T00:01:56;7.10;68.60
70550;DHT22;58101;48.658;2.328;2023-04-04T00:04:22;7.00;68.50
70550;DHT22;58101;48.658;2.328;2023-04-04T00:06:48;7.00;68.00
70550;DHT22;58101;48.658;2.328;2023-04-04T00:09:14;7.00;68.30
70550;DHT22;58101;48.658;2.328;2023-04-04T00:11:40;7.00;68.30
70550;DHT22;58101;48.658;2.328;2023-04-04T00:14:06;7.00;68.10
70550;DHT22;58101;48.658;2.328;2023-04-04T00:16:33;6.90;68.00
70550;DHT22;58101;48.658;2.328;2023-04-04T00:18:58;6.90;68.00
70550;DHT22;58101;48.658;2.328;2023-04-04T00:21:24;6.80;67.90
70550;DHT22;58101;48.658;2.328;2023-04-04T00:23:55;6.80;68.10
70550;DHT22;58101;48.658;2.328;2023-04-04T00:26:22;6.70;69.00
70550;DHT22;58101;48.658;2.328;2023-04-04T00:28:47;6.70;68.70
70550;DHT22;58101;48.658;2.328;2023-04-04T00:31:13;6.70;68.70
70550;DHT22;58101;48.658;2.328;2023-04-04T00:33:39;6.70;68.40
70550;DHT22;58101;48.658;2.328;2023-04-04T00:36:04;6.70;68.70
70550;DHT22;58101;48.658;2.328;2023-04-04T00:38:30;6.70;68.00
70550;DHT22;58101;48.658;2.328;2023-04-04T00:40:56;6.60;68.30
70550;DHT22;58101;48.658;2.328;2023-04-04T00:43:22;6.60;68.20
70550;DHT22;58101;48.658;2.328;2023-04-04T00:45:49;6.60;69.10
70550;DHT22;58101;48.658;2.328;2023-04-04T00:48:16;6.70;69.00
70550;DHT22;58101;48.658;2.328;2023-04-04T00:50:42;6.50;68.90
70550;DHT22;58101;48.658;2.328;2023-04-04T00:53:07;6.50;70.00
70550;DHT22;58101;48.658;2.328;2023-04-04T00:55:36;6.60;70.30
70550;DHT22;58101;48.658;2.328;2023-04-04T00:58:03;6.50;71.50
70550;DHT22;58101;48.658;2.328;2023-04-04T01:00:29;6.30;71.30
70550;DHT22;58101;48.658;2.328;2023-04-04T01:02:55;6.40;70.70
70550;DHT22;58101;48.658;2.328;2023-04-04T01:05:22;6.40;71.30
70550;DHT22;58101;48.658;2.328;2023-04-04T01:07:48;6.30;71.20
70550;DHT22;58101;48.658;2.328;2023-04-04T01:10:13;6.30;72.20
70550;DHT22;58101;48.658;2.328;2023-04-04T01:12:40;6.30;72.20
70550;DHT22;58101;48.658;2.328;2023-04-04T01:15:07;6.20;72.30
70550;DHT22;58101;48.658;2.328;2023-04-04T01:17:33;6.20;72.50
70550;DHT22;58101;48.658;2.328;2023-04-04T01:20:10;6.20;72.70
70550;DHT22;58101;48.658;2.328;2023-04-04T01:22:39;6.10;73.20
70550;DHT22;58101;48.658;2.328;2023-04-04T01:25:06;6.10;73.90
70550;DHT22;58101;48.658;2.328;2023-04-04T01:27:32;6.10;73.00
70550;DHT22;58101;48.658;2.328;2023-04-04T01:29:58;6.10;74.10
70550;DHT22;58101;48.658;2.328;2023-04-04T01:32:35;6.00;74.80
70550;DHT22;58101;48.658;2.328;2023-04-04T01:35:29;6.00;75.00
70550;DHT22;58101;48.658;2.328;2023-04-04T01:38:13;6.00;76.10
70550;DHT22;58101;48.658;2.328;2023-04-04T01:40:48;5.90;76.30
70550;DHT22;58101;48.658;2.328;2023-04-04T01:43:14;5.90;75.90
70550;DHT22;58101;48.658;2.328;2023-04-04T01:45:39;5.80;76.10
70550;DHT22;58101;48.658;2.328;2023-04-04T01:48:06;5.80;75.90
70550;DHT22;58101;48.658;2.328;2023-04-04T01:50:32;5.80;75.80
70550;DHT22;58101;48.658;2.328;2023-04-04T01:52:58;5.80;75.80
70550;DHT22;58101;48.658;2.328;2023-04-04T01:55:23;5.80;77.00
70550;DHT22;58101;48.658;2.328;2023-04-04T01:57:49;5.70;75.60
70550;DHT22;58101;48.658;2.328;2023-04-04T02:00:15;5.70;75.60
70550;DHT22;58101;48.658;2.328;2023-04-04T02:02:42;5.70;77.10
70550;DHT22;58101;48.658;2.328;2023-04-04T02:05:07;5.60;76.80
70550;DHT22;58101;48.658;2.328;2023-04-04T02:07:33;5.60;78.20
70550;DHT22;58101;48.658;2.328;2023-04-04T02:09:58;5.60;80.20
70550;DHT22;58101;48.658;2.328;2023-04-04T02:12:24;5.50;80.10
70550;DHT22;58101;48.658;2.328;2023-04-04T02:14:50;5.50;80.30
70550;DHT22;58101;48.658;2.328;2023-04-04T02:17:17;5.50;82.00
70550;DHT22;58101;48.658;2.328;2023-04-04T02:19:42;5.50;81.20
70550;DHT22;58101;48.658;2.328;2023-04-04T02:22:08;5.40;80.80
70550;DHT22;58101;48.658;2.328;2023-04-04T02:24:33;5.40;80.60
70550;DHT22;58101;48.658;2.328;2023-04-04T02:26:59;5.40;80.90
70550;DHT22;58101;48.658;2.328;2023-04-04T02:29:25;5.30;82.00
70550;DHT22;58101;48.658;2.328;2023-04-04T02:31:50;5.30;82.50
70550;DHT22;58101;48.658;2.328;2023-04-04T02:34:17;5.40;81.10
70550;DHT22;58101;48.658;2.328;2023-04-04T02:36:42;5.30;80.10
70550;DHT22;58101;48.658;2.328;2023-04-04T02:39:08;5.20;80.00
70550;DHT22;58101;48.658;2.328;2023-04-04T02:41:33;5.30;81.00
70550;DHT22;58101;48.658;2.328;2023-04-04T02:43:59;5.30;81.70
70550;DHT22;58101;48.658;2.328;2023-04-04T02:46:25;5.30;82.10
70550;DHT22;58101;48.658;2.328;2023-04-04T02:48:50;5.30;81.50
70550;DHT22;58101;48.658;2.328;2023-04-04T02:51:17;5.20;80.90
70550;DHT22;58101;48.658;2.328;2023-04-04T02:53:43;5.20;81.00
70550;DHT22;58101;48.658;2.328;2023-04-04T02:56:08;5.20;81.70
70550;DHT22;58101;48.658;2.328;2023-04-04T02:58:34;5.20;81.70
70550;DHT22;58101;48.658;2.328;2023-04-04T03:01:00;5.10;80.70
70550;DHT22;58101;48.658;2.328;2023-04-04T03:03:25;5.10;81.00
70550;DHT22;58101;48.658;2.328;2023-04-04T03:05:51;5.10;81.50
70550;DHT22;58101;48.658;2.328;2023-04-04T03:08:17;5.10;81.60
70550;DHT22;58101;48.658;2.328;2023-04-04T03:10:44;5.10;82.70
70550;DHT22;58101;48.658;2.328;2023-04-04T03:13:10;5.00;84.00
70550;DHT22;58101;48.658;2.328;2023-04-04T03:15:36;5.10;83.70
70550;DHT22;58101;48.658;2.328;2023-04-04T03:18:02;5.00;83.50
70550;DHT22;58101;48.658;2.328;2023-04-04T03:20:28;5.00;82.70
70550;DHT22;58101;48.658;2.328;2023-04-04T03:22:54;4.90;83.60
70550;DHT22;58101;48.658;2.328;2023-04-04T03:25:19;4.90;83.00
70550;DHT22;58101;48.658;2.328;2023-04-04T03:27:45;4.90;83.70
70550;DHT22;58101;48.658;2.328;2023-04-04T03:30:11;4.90;83.90
70550;DHT22;58101;48.658;2.328;2023-04-04T03:32:38;4.90;85.20
70550;DHT22;58101;48.658;2.328;2023-04-04T03:35:05;4.90;83.60
70550;DHT22;58101;48.658;2.328;2023-04-04T03:37:31;4.80;83.60
70550;DHT22;58101;48.658;2.328;2023-04-04T03:39:57;4.80;84.30
70550;DHT22;58101;48.658;2.328;2023-04-04T03:42:23;4.70;82.90
70550;DHT22;58101;48.658;2.328;2023-04-04T03:44:48;4.70;82.80
70550;DHT22;58101;48.658;2.328;2023-04-04T03:47:14;4.70;83.50
70550;DHT22;58101;48.658;2.328;2023-04-04T03:49:39;4.70;83.70
70550;DHT22;58101;48.658;2.328;2023-04-04T03:52:05;4.70;83.40
70550;DHT22;58101;48.658;2.328;2023-04-04T03:54:31;4.60;82.00
70550;DHT22;58101;48.658;2.328;2023-04-04T03:56:57;4.60;81.70
70550;DHT22;58101;48.658;2.328;2023-04-04T03:59:23;4.60;82.40
70550;DHT22;58101;48.658;2.328;2023-04-04T04:01:49;4.60;84.30
70550;DHT22;58101;48.658;2.328;2023-04-04T04:04:15;4.60;83.10
70550;DHT22;58101;48.658;2.328;2023-04-04T04:06:40;4.50;82.40
70550;DHT22;58101;48.658;2.328;2023-04-04T04:09:06;4.50;83.50
70550;DHT22;58101;48.658;2.328;2023-04-04T04:11:32;4.50;82.50
70550;DHT22;58101;48.658;2.328;2023-04-04T04:13:58;4.50;82.90
70550;DHT22;58101;48.658;2.328;2023-04-04T04:16:25;4.50;83.40
70550;DHT22;58101;48.658;2.328;2023-04-04T04:18:52;4.40;82.30
70550;DHT22;58101;48.658;2.328;2023-04-04T04:21:17;4.50;81.80
70550;DHT22;58101;48.658;2.328;2023-04-04T04:23:43;4.40;82.30
70550;DHT22;58101;48.658;2.328;2023-04-04T04:26:09;4.40;81.20
70550;DHT22;58101;48.658;2.328;2023-04-04T04:28:34;4.40;81.30
70550;DHT22;58101;48.658;2.328;2023-04-04T04:31:07;4.30;82.50
70550;DHT22;58101;48.658;2.328;2023-04-04T04:33:33;4.40;83.40
70550;DHT22;58101;48.658;2.328;2023-04-04T04:36:03;4.30;82.00
70550;DHT22;58101;48.658;2.328;2023-04-04T04:38:29;4.30;82.30
70550;DHT22;58101;48.658;2.328;2023-04-04T04:40:55;4.30;81.90
70550;DHT22;58101;48.658;2.328;2023-04-04T04:43:21;4.30;81.30
70550;DHT22;58101;48.658;2.328;2023-04-04T04:45:47;4.30;83.30
70550;DHT22;58101;48.658;2.328;2023-04-04T04:48:13;4.30;84.20
70550;DHT22;58101;48.658;2.328;2023-04-04T04:50:45;4.30;84.40
70550;DHT22;58101;48.658;2.328;2023-04-04T04:53:12;4.30;84.80
70550;DHT22;58101;48.658;2.328;2023-04-04T04:55:37;4.20;84.10
70550;DHT22;58101;48.658;2.328;2023-04-04T04:58:03;4.20;84.70
70550;DHT22;58101;48.658;2.328;2023-04-04T05:00:30;4.20;84.60
70550;DHT22;58101;48.658;2.328;2023-04-04T05:02:56;4.20;84.60
70550;DHT22;58101;48.658;2.328;2023-04-04T05:05:25;4.10;84.00
70550;DHT22;58101;48.658;2.328;2023-04-04T05:07:50;4.10;84.60
70550;DHT22;58101;48.658;2.328;2023-04-04T05:13:38;4.10;84.70
70550;DHT22;58101;48.658;2.328;2023-04-04T05:16:04;4.10;85.00
70550;DHT22;58101;48.658;2.328;2023-04-04T05:18:30;4.10;85.80
70550;DHT22;58101;48.658;2.328;2023-04-04T05:20:56;4.10;83.70
70550;DHT22;58101;48.658;2.328;2023-04-04T05:23:21;4.00;84.60
70550;DHT22;58101;48.658;2.328;2023-04-04T05:25:48;3.90;87.20
70550;DHT22;58101;48.658;2.328;2023-04-04T05:28:15;4.00;86.70
70550;DHT22;58101;48.658;2.328;2023-04-04T05:30:40;4.00;86.40
70550;DHT22;58101;48.658;2.328;2023-04-04T05:33:06;4.00;85.50
70550;DHT22;58101;48.658;2.328;2023-04-04T05:35:31;4.00;86.10
70550;DHT22;58101;48.658;2.328;2023-04-04T05:37:57;4.00;88.20
70550;DHT22;58101;48.658;2.328;2023-04-04T05:40:26;4.00;86.50
70550;DHT22;58101;48.658;2.328;2023-04-04T05:42:55;4.00;85.80
70550;DHT22;58101;48.658;2.328;2023-04-04T05:45:21;4.00;85.90
70550;DHT22;58101;48.658;2.328;2023-04-04T05:47:47;4.00;86.30
70550;DHT22;58101;48.658;2.328;2023-04-04T05:50:13;4.00;86.80
70550;DHT22;58101;48.658;2.328;2023-04-04T05:52:39;4.00;87.40
70550;DHT22;58101;48.658;2.328;2023-04-04T05:55:05;4.00;87.20
70550;DHT22;58101;48.658;2.328;2023-04-04T05:57:30;4.00;87.80
70550;DHT22;58101;48.658;2.328;2023-04-04T05:59:57;4.00;87.30
70550;DHT22;58101;48.658;2.328;2023-04-04T06:02:23;4.10;88.00
70550;DHT22;58101;48.658;2.328;2023-04-04T06:04:48;4.10;86.70
70550;DHT22;58101;48.658;2.328;2023-04-04T06:07:14;4.10;87.60
70550;DHT22;58101;48.658;2.328;2023-04-04T06:09:41;4.10;85.80
70550;DHT22;58101;48.658;2.328;2023-04-04T06:15:01;4.30;87.10
70550;DHT22;58101;48.658;2.328;2023-04-04T06:17:27;4.30;83.30
70550;DHT22;58101;48.658;2.328;2023-04-04T06:19:52;4.30;83.50
70550;DHT22;58101;48.658;2.328;2023-04-04T06:22:19;4.40;83.00
70550;DHT22;58101;48.658;2.328;2023-04-04T06:24:46;4.40;83.20
70550;DHT22;58101;48.658;2.328;2023-04-04T06:27:11;4.50;83.00
70550;DHT22;58101;48.658;2.328;2023-04-04T06:29:37;4.60;81.00
70550;DHT22;58101;48.658;2.328;2023-04-04T06:32:03;4.70;81.20
70550;DHT22;58101;48.658;2.328;2023-04-04T06:34:30;4.70;77.40
70550;DHT22;58101;48.658;2.328;2023-04-04T06:36:56;4.80;78.70
70550;DHT22;58101;48.658;2.328;2023-04-04T06:39:22;4.90;77.10
70550;DHT22;58101;48.658;2.328;2023-04-04T06:41:47;4.90;76.20
70550;DHT22;58101;48.658;2.328;2023-04-04T06:44:13;5.00;74.40
70550;DHT22;58101;48.658;2.328;2023-04-04T06:46:39;5.00;71.70
70550;DHT22;58101;48.658;2.328;2023-04-04T06:49:05;5.10;73.80
70550;DHT22;58101;48.658;2.328;2023-04-04T06:51:34;5.20;71.40
70550;DHT22;58101;48.658;2.328;2023-04-04T06:54:00;5.40;71.80
70550;DHT22;58101;48.658;2.328;2023-04-04T06:56:27;5.30;71.70
70550;DHT22;58101;48.658;2.328;2023-04-04T06:58:52;5.40;71.40
70550;DHT22;58101;48.658;2.328;2023-04-04T07:01:18;5.50;69.10
70550;DHT22;58101;48.658;2.328;2023-04-04T07:03:43;5.50;68.90
70550;DHT22;58101;48.658;2.328;2023-04-04T07:06:09;5.60;68.90
70550;DHT22;58101;48.658;2.328;2023-04-04T07:08:37;5.80;68.90
70550;DHT22;58101;48.658;2.328;2023-04-04T07:11:03;5.90;68.60
70550;DHT22;58101;48.658;2.328;2023-04-04T07:13:29;5.90;67.80
70550;DHT22;58101;48.658;2.328;2023-04-04T07:15:54;6.10;66.20
70550;DHT22;58101;48.658;2.328;2023-04-04T07:18:20;6.10;65.00
70550;DHT22;58101;48.658;2.328;2023-04-04T07:20:46;6.30;64.50
70550;DHT22;58101;48.658;2.328;2023-04-04T07:23:12;6.40;65.00
70550;DHT22;58101;48.658;2.328;2023-04-04T07:25:39;6.50;64.30
70550;DHT22;58101;48.658;2.328;2023-04-04T07:28:05;6.60;64.20
70550;DHT22;58101;48.658;2.328;2023-04-04T07:30:31;6.70;61.70
70550;DHT22;58101;48.658;2.328;2023-04-04T07:32:58;6.80;61.10
70550;DHT22;58101;48.658;2.328;2023-04-04T07:35:24;6.90;60.60
70550;DHT22;58101;48.658;2.328;2023-04-04T07:37:49;7.00;60.60
70550;DHT22;58101;48.658;2.328;2023-04-04T07:40:15;7.20;60.00
70550;DHT22;58101;48.658;2.328;2023-04-04T07:42:45;7.20;59.60
70550;DHT22;58101;48.658;2.328;2023-04-04T07:45:14;7.30;59.30
70550;DHT22;58101;48.658;2.328;2023-04-04T07:47:43;7.40;58.30
70550;DHT22;58101;48.658;2.328;2023-04-04T07:50:11;7.50;58.40
70550;DHT22;58101;48.658;2.328;2023-04-04T07:52:36;7.60;58.40
70550;DHT22;58101;48.658;2.328;2023-04-04T07:55:02;7.80;57.70
70550;DHT22;58101;48.658;2.328;2023-04-04T07:57:28;7.90;56.30
70550;DHT22;58101;48.658;2.328;2023-04-04T07:59:54;8.20;57.20
70550;DHT22;58101;48.658;2.328;2023-04-04T08:02:19;8.20;56.10
70550;DHT22;58101;48.658;2.328;2023-04-04T08:04:45;8.30;56.20
70550;DHT22;58101;48.658;2.328;2023-04-04T08:07:11;8.40;55.80
70550;DHT22;58101;48.658;2.328;2023-04-04T08:09:36;8.50;55.00
70550;DHT22;58101;48.658;2.328;2023-04-04T08:12:02;8.70;54.40
70550;DHT22;58101;48.658;2.328;2023-04-04T08:14:29;8.80;51.90
70550;DHT22;58101;48.658;2.328;2023-04-04T08:16:55;8.80;51.80
70550;DHT22;58101;48.658;2.328;2023-04-04T08:19:22;8.80;52.90
70550;DHT22;58101;48.658;2.328;2023-04-04T08:21:47;9.00;53.40
70550;DHT22;58101;48.658;2.328;2023-04-04T08:24:14;9.30;53.40
70550;DHT22;58101;48.658;2.328;2023-04-04T08:26:40;9.50;51.10
70550;DHT22;58101;48.658;2.328;2023-04-04T08:29:06;9.50;50.70
70550;DHT22;58101;48.658;2.328;2023-04-04T08:31:32;9.70;51.20
70550;DHT22;58101;48.658;2.328;2023-04-04T08:33:58;10.00;51.20
70550;DHT22;58101;48.658;2.328;2023-04-04T08:36:25;10.40;51.30
70550;DHT22;58101;48.658;2.328;2023-04-04T08:38:51;11.00;50.30
70550;DHT22;58101;48.658;2.328;2023-04-04T08:41:16;12.00;49.10
70550;DHT22;58101;48.658;2.328;2023-04-04T08:43:43;13.60;45.90
70550;DHT22;58101;48.658;2.328;2023-04-04T08:46:11;15.10;39.80
70550;DHT22;58101;48.658;2.328;2023-04-04T08:48:40;16.70;37.80
70550;DHT22;58101;48.658;2.328;2023-04-04T08:51:07;18.20;33.90
70550;DHT22;58101;48.658;2.328;2023-04-04T08:53:35;19.30;32.30
70550;DHT22;58101;48.658;2.328;2023-04-04T08:56:02;20.20;30.00
70550;DHT22;58101;48.658;2.328;2023-04-04T08:58:27;20.80;27.40
70550;DHT22;58101;48.658;2.328;2023-04-04T09:00:54;21.20;27.50
70550;DHT22;58101;48.658;2.328;2023-04-04T09:03:26;21.70;26.20
70550;DHT22;58101;48.658;2.328;2023-04-04T09:05:55;21.80;25.40
70550;DHT22;58101;48.658;2.328;2023-04-04T09:08:22;21.40;25.40
70550;DHT22;58101;48.658;2.328;2023-04-04T09:10:51;21.60;25.70
70550;DHT22;58101;48.658;2.328;2023-04-04T09:13:18;22.00;24.90
70550;DHT22;58101;48.658;2.328;2023-04-04T09:15:52;22.30;25.10
70550;DHT22;58101;48.658;2.328;2023-04-04T09:18:22;22.60;23.20
70550;DHT22;58101;48.658;2.328;2023-04-04T09:20:48;22.20;23.30
70550;DHT22;58101;48.658;2.328;2023-04-04T09:23:18;22.10;23.60
70550;DHT22;58101;48.658;2.328;2023-04-04T09:25:54;22.10;23.70
70550;DHT22;58101;48.658;2.328;2023-04-04T09:28:21;22.40;23.40
70550;DHT22;58101;48.658;2.328;2023-04-04T09:30:48;22.60;23.00
70550;DHT22;58101;48.658;2.328;2023-04-04T09:33:15;22.70;22.90
70550;DHT22;58101;48.658;2.328;2023-04-04T09:35:46;23.00;22.90
70550;DHT22;58101;48.658;2.328;2023-04-04T09:38:14;23.20;22.70
70550;DHT22;58101;48.658;2.328;2023-04-04T09:40:41;23.20;22.20
70550;DHT22;58101;48.658;2.328;2023-04-04T09:43:08;23.30;21.50
70550;DHT22;58101;48.658;2.328;2023-04-04T09:45:39;23.00;22.10
70550;DHT22;58101;48.658;2.328;2023-04-04T09:48:06;22.90;22.30
70550;DHT22;58101;48.658;2.328;2023-04-04T09:50:34;22.90;22.40
70550;DHT22;58101;48.658;2.328;2023-04-04T09:53:00;23.30;22.40
70550;DHT22;58101;48.658;2.328;2023-04-04T09:55:36;23.40;22.00
70550;DHT22;58101;48.658;2.328;2023-04-04T09:58:31;24.00;21.70
70550;DHT22;58101;48.658;2.328;2023-04-04T10:01:03;23.70;20.90
70550;DHT22;58101;48.658;2.328;2023-04-04T10:03:29;23.70;20.70
70550;DHT22;58101;48.658;2.328;2023-04-04T10:05:59;23.80;21.60
70550;DHT22;58101;48.658;2.328;2023-04-04T10:08:27;24.00;21.10
70550;DHT22;58101;48.658;2.328;2023-04-04T10:10:57;24.10;20.60
70550;DHT22;58101;48.658;2.328;2023-04-04T10:13:27;24.30;21.60
70550;DHT22;58101;48.658;2.328;2023-04-04T10:15:57;24.60;20.80
70550;DHT22;58101;48.658;2.328;2023-04-04T10:18:27;24.80;21.10
70550;DHT22;58101;48.658;2.328;2023-04-04T10:20:54;25.20;21.20
70550;DHT22;58101;48.658;2.328;2023-04-04T10:23:21;25.50;20.10
70550;DHT22;58101;48.658;2.328;2023-04-04T10:25:54;25.50;19.60
70550;DHT22;58101;48.658;2.328;2023-04-04T10:28:20;25.50;20.50
70550;DHT22;58101;48.658;2.328;2023-04-04T10:30:57;25.30;20.30
70550;DHT22;58101;48.658;2.328;2023-04-04T10:33:26;25.70;20.40
70550;DHT22;58101;48.658;2.328;2023-04-04T10:35:58;25.60;19.50
70550;DHT22;58101;48.658;2.328;2023-04-04T10:38:28;25.70;19.60
70550;DHT22;58101;48.658;2.328;2023-04-04T10:40:58;26.00;20.10
70550;DHT22;58101;48.658;2.328;2023-04-04T10:43:25;26.20;19.40
70550;DHT22;58101;48.658;2.328;2023-04-04T10:45:53;26.00;18.90
70550;DHT22;58101;48.658;2.328;2023-04-04T10:48:19;25.80;18.60
70550;DHT22;58101;48.658;2.328;2023-04-04T10:50:47;25.60;18.90
70550;DHT22;58101;48.658;2.328;2023-04-04T10:53:13;25.60;19.90
70550;DHT22;58101;48.658;2.328;2023-04-04T10:55:39;25.50;18.80
70550;DHT22;58101;48.658;2.328;2023-04-04T10:58:06;25.30;19.40
70550;DHT22;58101;48.658;2.328;2023-04-04T11:00:32;25.30;19.90
70550;DHT22;58101;48.658;2.328;2023-04-04T11:03:12;25.70;20.10
70550;DHT22;58101;48.658;2.328;2023-04-04T11:05:39;25.90;19.50
70550;DHT22;58101;48.658;2.328;2023-04-04T11:08:08;25.80;19.50
70550;DHT22;58101;48.658;2.328;2023-04-04T11:10:43;26.00;18.90
70550;DHT22;58101;48.658;2.328;2023-04-04T11:13:26;25.90;19.20
70550;DHT22;58101;48.658;2.328;2023-04-04T11:15:55;26.10;19.30
70550;DHT22;58101;48.658;2.328;2023-04-04T11:21:09;26.20;19.30
70550;DHT22;58101;48.658;2.328;2023-04-04T11:28:59;26.10;20.20
70550;DHT22;58101;48.658;2.328;2023-04-04T11:31:27;26.00;19.90
70550;DHT22;58101;48.658;2.328;2023-04-04T11:34:09;26.00;19.60
70550;DHT22;58101;48.658;2.328;2023-04-04T11:39:16;25.60;19.90
70550;DHT22;58101;48.658;2.328;2023-04-04T11:44:15;25.50;20.60
70550;DHT22;58101;48.658;2.328;2023-04-04T11:46:42;25.20;20.30
70550;DHT22;58101;48.658;2.328;2023-04-04T11:49:09;24.70;20.40
70550;DHT22;58101;48.658;2.328;2023-04-04T11:51:37;24.50;21.10
70550;DHT22;58101;48.658;2.328;2023-04-04T11:54:03;24.20;21.10
70550;DHT22;58101;48.658;2.328;2023-04-04T11:56:35;23.50;21.20
70550;DHT22;58101;48.658;2.328;2023-04-04T11:59:03;23.20;22.40
70550;DHT22;58101;48.658;2.328;2023-04-04T12:01:30;22.80;22.30
70550;DHT22;58101;48.658;2.328;2023-04-04T12:03:58;22.60;21.70
70550;DHT22;58101;48.658;2.328;2023-04-04T12:06:25;22.30;21.70
70550;DHT22;58101;48.658;2.328;2023-04-04T12:08:51;22.00;22.50
70550;DHT22;58101;48.658;2.328;2023-04-04T12:11:17;21.60;22.50
70550;DHT22;58101;48.658;2.328;2023-04-04T12:13:45;21.10;23.10
70550;DHT22;58101;48.658;2.328;2023-04-04T12:16:10;20.80;23.90
70550;DHT22;58101;48.658;2.328;2023-04-04T12:18:36;20.60;25.60
70550;DHT22;58101;48.658;2.328;2023-04-04T12:21:02;20.60;24.10
70550;DHT22;58101;48.658;2.328;2023-04-04T12:23:33;20.50;24.50
70550;DHT22;58101;48.658;2.328;2023-04-04T12:26:02;20.30;23.90
70550;DHT22;58101;48.658;2.328;2023-04-04T12:28:30;20.10;25.10
70550;DHT22;58101;48.658;2.328;2023-04-04T12:30:59;20.00;25.80
70550;DHT22;58101;48.658;2.328;2023-04-04T12:33:30;19.90;24.90
70550;DHT22;58101;48.658;2.328;2023-04-04T12:35:58;19.80;26.20
70550;DHT22;58101;48.658;2.328;2023-04-04T12:38:24;19.80;26.20
70550;DHT22;58101;48.658;2.328;2023-04-04T12:40:51;19.60;25.70
70550;DHT22;58101;48.658;2.328;2023-04-04T12:43:17;19.50;25.10
70550;DHT22;58101;48.658;2.328;2023-04-04T12:45:43;19.50;24.80
70550;DHT22;58101;48.658;2.328;2023-04-04T12:48:13;19.30;25.10
70550;DHT22;58101;48.658;2.328;2023-04-04T12:50:56;19.00;25.40
70550;DHT22;58101;48.658;2.328;2023-04-04T12:53:28;18.50;25.90
70550;DHT22;58101;48.658;2.328;2023-04-04T12:55:58;18.30;26.60
70550;DHT22;58101;48.658;2.328;2023-04-04T12:58:24;18.30;27.10
70550;DHT22;58101;48.658;2.328;2023-04-04T13:00:52;18.30;27.80
70550;DHT22;58101;48.658;2.328;2023-04-04T13:05:54;18.30;27.00
70550;DHT22;58101;48.658;2.328;2023-04-04T13:08:22;18.10;27.00
70550;DHT22;58101;48.658;2.328;2023-04-04T13:11:02;18.00;27.60
70550;DHT22;58101;48.658;2.328;2023-04-04T13:13:35;18.00;27.00
70550;DHT22;58101;48.658;2.328;2023-04-04T13:16:08;18.00;27.10
70550;DHT22;58101;48.658;2.328;2023-04-04T13:18:41;17.80;26.10
70550;DHT22;58101;48.658;2.328;2023-04-04T13:21:11;17.70;26.90
70550;DHT22;58101;48.658;2.328;2023-04-04T13:23:39;17.60;26.20
70550;DHT22;58101;48.658;2.328;2023-04-04T13:26:06;17.50;26.90
70550;DHT22;58101;48.658;2.328;2023-04-04T13:28:32;17.50;27.90
70550;DHT22;58101;48.658;2.328;2023-04-04T13:31:06;17.40;28.40
70550;DHT22;58101;48.658;2.328;2023-04-04T13:33:32;17.50;28.70
70550;DHT22;58101;48.658;2.328;2023-04-04T13:35:59;17.40;27.10
70550;DHT22;58101;48.658;2.328;2023-04-04T13:38:26;17.20;27.00
70550;DHT22;58101;48.658;2.328;2023-04-04T13:43:27;16.90;27.50
70550;DHT22;58101;48.658;2.328;2023-04-04T13:45:53;16.80;27.40
70550;DHT22;58101;48.658;2.328;2023-04-04T13:48:20;16.70;29.50
70550;DHT22;58101;48.658;2.328;2023-04-04T13:50:46;16.60;26.40
70550;DHT22;58101;48.658;2.328;2023-04-04T13:53:16;16.50;26.50
70550;DHT22;58101;48.658;2.328;2023-04-04T13:55:42;16.50;27.00
70550;DHT22;58101;48.658;2.328;2023-04-04T13:58:08;16.60;28.00
70550;DHT22;58101;48.658;2.328;2023-04-04T14:00:33;16.60;27.90
70550;DHT22;58101;48.658;2.328;2023-04-04T14:02:59;16.50;27.20
70550;DHT22;58101;48.658;2.328;2023-04-04T14:05:25;16.30;27.80
70550;DHT22;58101;48.658;2.328;2023-04-04T14:07:51;16.20;27.60
70550;DHT22;58101;48.658;2.328;2023-04-04T14:10:17;16.00;28.40
70550;DHT22;58101;48.658;2.328;2023-04-04T14:12:42;15.90;28.10
70550;DHT22;58101;48.658;2.328;2023-04-04T14:15:08;15.80;27.90
70550;DHT22;58101;48.658;2.328;2023-04-04T14:17:35;15.80;28.30
70550;DHT22;58101;48.658;2.328;2023-04-04T14:20:01;15.80;28.40
70550;DHT22;58101;48.658;2.328;2023-04-04T14:22:27;15.60;27.50
70550;DHT22;58101;48.658;2.328;2023-04-04T14:24:53;15.70;28.40
70550;DHT22;58101;48.658;2.328;2023-04-04T14:27:18;15.70;28.70
70550;DHT22;58101;48.658;2.328;2023-04-04T14:29:50;15.60;27.80
70550;DHT22;58101;48.658;2.328;2023-04-04T14:32:16;15.50;29.30
70550;DHT22;58101;48.658;2.328;2023-04-04T14:35:02;15.40;29.30
70550;DHT22;58101;48.658;2.328;2023-04-04T14:37:34;15.50;29.60
70550;DHT22;58101;48.658;2.328;2023-04-04T14:40:27;15.50;29.90
70550;DHT22;58101;48.658;2.328;2023-04-04T14:45:44;15.40;31.30
70550;DHT22;58101;48.658;2.328;2023-04-04T14:48:09;15.40;31.80
70550;DHT22;58101;48.658;2.328;2023-04-04T14:50:35;15.50;31.60
70550;DHT22;58101;48.658;2.328;2023-04-04T14:53:02;15.50;32.50
70550;DHT22;58101;48.658;2.328;2023-04-04T14:55:28;15.60;31.70
70550;DHT22;58101;48.658;2.328;2023-04-04T14:57:54;15.60;32.30
70550;DHT22;58101;48.658;2.328;2023-04-04T15:00:24;15.60;31.60
70550;DHT22;58101;48.658;2.328;2023-04-04T15:02:51;15.60;31.40
70550;DHT22;58101;48.658;2.328;2023-04-04T15:05:17;15.50;30.90
70550;DHT22;58101;48.658;2.328;2023-04-04T15:07:46;15.50;29.70
70550;DHT22;58101;48.658;2.328;2023-04-04T15:10:12;15.50;30.60
70550;DHT22;58101;48.658;2.328;2023-04-04T15:12:43;15.40;30.80
70550;DHT22;58101;48.658;2.328;2023-04-04T15:15:09;15.20;30.40
70550;DHT22;58101;48.658;2.328;2023-04-04T15:20:55;15.20;30.60
70550;DHT22;58101;48.658;2.328;2023-04-04T15:23:21;15.10;30.60
70550;DHT22;58101;48.658;2.328;2023-04-04T15:25:56;15.20;30.90
70550;DHT22;58101;48.658;2.328;2023-04-04T15:28:21;15.10;31.80
70550;DHT22;58101;48.658;2.328;2023-04-04T15:30:47;15.10;31.10
70550;DHT22;58101;48.658;2.328;2023-04-04T15:33:13;15.10;32.50
70550;DHT22;58101;48.658;2.328;2023-04-04T15:35:38;15.10;32.90
70550;DHT22;58101;48.658;2.328;2023-04-04T15:38:22;15.20;32.30
70550;DHT22;58101;48.658;2.328;2023-04-04T15:40:54;15.20;31.90
70550;DHT22;58101;48.658;2.328;2023-04-04T15:43:19;15.10;31.50
70550;DHT22;58101;48.658;2.328;2023-04-04T15:46:06;15.20;32.50
70550;DHT22;58101;48.658;2.328;2023-04-04T15:49:04;15.10;32.40
70550;DHT22;58101;48.658;2.328;2023-04-04T15:51:48;14.90;31.80
70550;DHT22;58101;48.658;2.328;2023-04-04T15:54:17;14.80;32.80
70550;DHT22;58101;48.658;2.328;2023-04-04T15:56:43;14.70;30.70
70550;DHT22;58101;48.658;2.328;2023-04-04T15:59:09;14.50;31.70
70550;DHT22;58101;48.658;2.328;2023-04-04T16:01:35;14.40;32.90
70550;DHT22;58101;48.658;2.328;2023-04-04T16:04:03;14.30;33.30
70550;DHT22;58101;48.658;2.328;2023-04-04T16:06:29;14.10;33.10
70550;DHT22;58101;48.658;2.328;2023-04-04T16:08:56;13.90;33.60
70550;DHT22;58101;48.658;2.328;2023-04-04T16:11:31;14.00;34.70
70550;DHT22;58101;48.658;2.328;2023-04-04T16:13:57;14.00;33.60